Time;durP1;ratioP1;P1;durP2;ratioP2;P2;SDS_P1;SDS_P2;PMS_P1;PMS_P2;Temp;Humidity;BMP_temperature;BMP_pressure;BME280_temperature;BME280_humidity;BME280_pressure;Samples;Min_cycle;Max_cycle;Signal;HPM_P1;HPM_P2
2021/07/11 00:00:13;;;;;;;0.40;0.40;;;;;;;15.92;80.84;96942.56;29395;212;63005;-63
2021/07/11 00:00:44;;;;;;;0.40;0.40;;;;;;;15.90;81.17;96942.09;29394;197;64013;-63
2021/07/11 00:01:16;;;;;;;0.30;0.30;;;;;;;15.87;81.24;96942.75;29395;384;63004;-63
2021/07/11 00:01:48;;;;;;;0.40;0.40;;;;;;;15.85;80.99;96945.00;29394;232;64013;-63
2021/07/11 00:02:19;;;;;;;0.30;0.30;;;;;;;15.84;81.93;96943.38;29395;332;63004;-62
2021/07/11 00:02:51;;;;;;;0.30;0.30;;;;;;;15.82;81.86;96939.38;29395;245;63009;-62
2021/07/11 00:03:22;;;;;;;0.40;0.40;;;;;;;15.82;81.63;96934.69;29395;215;63004;-63
2021/07/11 00:03:53;;;;;;;0.40;0.40;;;;;;;15.83;81.31;96938.25;29395;216;63009;-62
2021/07/11 00:04:25;;;;;;;0.40;0.40;;;;;;;15.82;81.29;96942.09;29395;294;63005;-61
2021/07/11 00:04:56;;;;;;;0.40;0.40;;;;;;;15.79;80.65;96940.81;29395;197;63009;-62
2021/07/11 00:05:28;;;;;;;0.40;0.40;;;;;;;15.80;80.62;96939.69;29395;212;63005;-62
2021/07/11 00:05:59;;;;;;;0.40;0.40;;;;;;;15.80;80.73;96942.44;29395;255;63009;-63
2021/07/11 00:06:34;;;;;;;0.40;0.40;;;;;;;15.80;80.81;96936.97;29394;288;64009;-62
2021/07/11 00:07:06;;;;;;;0.35;0.35;;;;;;;15.80;80.57;96934.22;29395;214;63009;-61
2021/07/11 00:07:38;;;;;;;0.32;0.32;;;;;;;15.78;80.84;96931.00;29395;246;63005;-61
2021/07/11 00:08:09;;;;;;;0.40;0.40;;;;;;;15.80;81.19;96936.97;29395;237;63019;-62
2021/07/11 00:08:40;;;;;;;0.30;0.30;;;;;;;15.79;81.34;96929.87;29395;202;63004;-56
2021/07/11 00:09:12;;;;;;;0.40;0.40;;;;;;;15.77;81.60;96937.59;29395;218;63009;-63
2021/07/11 00:09:44;;;;;;;0.40;0.40;;;;;;;15.73;82.15;96937.44;29395;232;63004;-56
2021/07/11 00:10:17;;;;;;;0.40;0.40;;;;;;;15.72;81.51;96935.84;29394;248;64013;-63
2021/07/11 00:10:49;;;;;;;0.40;0.40;;;;;;;15.69;81.86;96932.94;29395;298;63016;-62
2021/07/11 00:11:21;;;;;;;0.40;0.40;;;;;;;15.66;82.11;96931.66;29395;202;63009;-57
2021/07/11 00:11:59;;;;;;;0.40;0.40;;;;;;;15.64;82.80;96933.12;29395;204;63008;-63
2021/07/11 00:12:31;;;;;;;0.40;0.40;;;;;;;15.61;82.43;96933.75;29395;316;63005;-61
2021/07/11 00:13:03;;;;;;;0.40;0.40;;;;;;;15.59;82.68;96936.03;29395;282;63005;-62
2021/07/11 00:13:35;;;;;;;0.40;0.40;;;;;;;15.56;82.27;96932.03;29395;227;63009;-61
2021/07/11 00:14:07;;;;;;;0.40;0.40;;;;;;;15.57;82.28;96932.81;29395;218;63005;-62
2021/07/11 00:14:39;;;;;;;0.40;0.40;;;;;;;15.58;82.34;96929.75;29395;226;63009;-57
2021/07/11 00:15:14;;;;;;;0.40;0.40;;;;;;;15.58;83.11;96931.69;29394;210;64009;-62
2021/07/11 00:15:49;;;;;;;0.40;0.40;;;;;;;15.52;82.75;96925.56;29395;208;63009;-62
2021/07/11 00:16:21;;;;;;;0.40;0.40;;;;;;;15.52;82.90;96928.28;29395;325;63004;-62
2021/07/11 00:16:53;;;;;;;0.40;0.40;;;;;;;15.51;82.35;96923.94;29395;207;63011;-61
2021/07/11 00:17:24;;;;;;;0.40;0.40;;;;;;;15.51;83.00;96932.16;29395;208;63004;-57
2021/07/11 00:17:56;;;;;;;0.40;0.40;;;;;;;15.51;82.79;96920.41;29395;232;63009;-62
2021/07/11 00:18:28;;;;;;;0.40;0.40;;;;;;;15.49;83.37;96920.72;29395;212;63004;-60
2021/07/11 00:19:01;;;;;;;0.40;0.40;;;;;;;15.48;82.72;96919.13;29395;346;63009;-61
2021/07/11 00:19:33;;;;;;;0.40;0.40;;;;;;;15.47;83.30;96922.19;29395;220;63005;-61
2021/07/11 00:20:07;;;;;;;0.40;0.40;;;;;;;15.44;83.62;96923.63;29395;318;63009;-61
2021/07/11 00:20:38;;;;;;;0.40;0.40;;;;;;;15.41;83.61;96932.47;29394;214;64009;-59
2021/07/11 00:21:10;;;;;;;0.40;0.40;;;;;;;15.38;83.35;96931.19;29395;207;63009;-60
2021/07/11 00:21:45;;;;;;;0.40;0.40;;;;;;;15.37;83.18;96935.03;29395;347;63005;-61
2021/07/11 00:22:17;;;;;;;0.40;0.40;;;;;;;15.39;82.92;96927.31;29395;224;63009;-60
2021/07/11 00:22:48;;;;;;;0.40;0.40;;;;;;;15.39;82.55;96932.78;29395;347;63005;-61
2021/07/11 00:23:20;;;;;;;0.40;0.40;;;;;;;15.39;83.14;96927.31;29395;239;63009;-60
2021/07/11 00:23:51;;;;;;;0.40;0.40;;;;;;;15.38;83.46;96930.37;29395;218;63004;-58
2021/07/11 00:24:22;;;;;;;0.40;0.40;;;;;;;15.34;83.91;96922.00;29395;234;63009;-61
2021/07/11 00:24:57;;;;;;;0.40;0.40;;;;;;;15.32;84.07;96921.53;29395;260;63004;-62
2021/07/11 00:25:28;;;;;;;0.40;0.40;;;;;;;15.35;83.13;96926.34;29395;202;63009;-61
2021/07/11 00:26:00;;;;;;;0.40;0.40;;;;;;;15.35;82.95;96929.09;29394;278;64008;-61
2021/07/11 00:26:31;;;;;;;0.40;0.40;;;;;;;15.35;82.61;96926.34;29395;272;63009;-61
2021/07/11 00:27:06;;;;;;;0.40;0.40;;;;;;;15.29;83.49;96927.66;29395;357;63005;-60
2021/07/11 00:27:38;;;;;;;0.40;0.40;;;;;;;15.26;84.00;96927.47;29395;322;63027;-61
2021/07/11 00:28:10;;;;;;;0.50;0.50;;;;;;;15.23;83.47;96930.88;29395;213;63005;-57
2021/07/11 00:28:41;;;;;;;0.50;0.50;;;;;;;15.19;84.60;96925.25;29395;220;63009;-61
2021/07/11 00:29:13;;;;;;;0.40;0.40;;;;;;;15.16;84.60;96928.63;29394;214;64009;-60
2021/07/11 00:29:44;;;;;;;0.40;0.40;;;;;;;15.13;84.49;96921.06;29395;200;63009;-61
2021/07/11 00:30:18;;;;;;;0.50;0.50;;;;;;;15.17;84.29;96924.78;29395;199;63016;-61
2021/07/11 00:30:49;;;;;;;0.40;0.40;;;;;;;15.15;83.99;96920.75;29395;212;63016;-61
2021/07/11 00:31:20;;;;;;;0.40;0.40;;;;;;;15.13;84.11;96923.81;29395;268;63004;-61
2021/07/11 00:31:54;;;;;;;0.40;0.40;;;;;;;15.13;84.01;96923.81;29395;214;63009;-62
2021/07/11 00:32:27;;;;;;;0.40;0.40;;;;;;;15.14;83.90;96925.41;29395;336;63004;-61
2021/07/11 00:32:59;;;;;;;0.40;0.40;;;;;;;15.17;83.95;96918.50;29395;237;63009;-60
2021/07/11 00:33:30;;;;;;;0.40;0.40;;;;;;;15.17;84.06;96918.50;29395;320;63004;-62
2021/07/11 00:34:01;;;;;;;0.40;0.40;;;;;;;15.17;83.60;96919.31;29395;230;63009;-57
2021/07/11 00:34:34;;;;;;;0.50;0.50;;;;;;;15.17;84.35;96924.78;29394;374;64009;-62
2021/07/11 00:35:07;;;;;;;0.40;0.40;;;;;;;15.19;83.20;96921.72;29395;329;63009;-62
2021/07/11 00:35:38;;;;;;;0.40;0.40;;;;;;;15.18;82.74;96920.91;29395;204;63005;-61
2021/07/11 00:36:09;;;;;;;0.40;0.40;;;;;;;15.18;82.49;96926.38;29394;202;64013;-62
2021/07/11 00:36:40;;;;;;;0.40;0.40;;;;;;;15.18;83.92;96920.91;29395;301;63005;-60
2021/07/11 00:37:15;;;;;;;0.40;0.40;;;;;;;15.16;84.21;96922.34;29395;199;63009;-60
2021/07/11 00:37:47;;;;;;;0.40;0.40;;;;;;;15.13;84.16;96923.81;29395;210;63004;-61
2021/07/11 00:38:18;;;;;;;0.40;0.40;;;;;;;15.11;84.44;96919.78;29395;253;63009;-60
2021/07/11 00:38:50;;;;;;;0.40;0.40;;;;;;;15.12;83.84;96922.19;29395;270;63004;-61
2021/07/11 00:39:21;;;;;;;0.40;0.40;;;;;;;15.12;83.95;96922.19;29395;277;63009;-60
2021/07/11 00:39:52;;;;;;;0.40;0.40;;;;;;;15.12;84.16;96922.19;29395;202;63004;-61
2021/07/11 00:40:23;;;;;;;0.50;0.50;;;;;;;15.13;83.82;96929.25;29395;299;63008;-62
2021/07/11 00:40:55;;;;;;;0.47;0.47;;;;;;;15.12;83.91;96922.19;29394;202;64008;-61
2021/07/11 00:41:26;;;;;;;0.40;0.40;;;;;;;15.15;83.76;96927.03;29395;199;63013;-61
2021/07/11 00:41:57;;;;;;;0.40;0.40;;;;;;;15.15;83.79;96924.28;29395;209;63005;-60
2021/07/11 00:42:28;;;;;;;0.40;0.40;;;;;;;15.13;83.25;96932.00;29395;280;63009;-61
2021/07/11 00:42:59;;;;;;;0.40;0.40;;;;;;;15.15;83.39;96926.22;29395;210;63005;-62
2021/07/11 00:43:31;;;;;;;0.40;0.40;;;;;;;15.15;82.59;96932.47;29394;207;64013;-62
2021/07/11 00:44:02;;;;;;;0.40;0.40;;;;;;;15.14;82.66;96930.88;29395;290;63005;-61
2021/07/11 00:44:33;;;;;;;0.40;0.40;;;;;;;15.13;82.83;96932.00;29395;293;63009;-62
2021/07/11 00:45:06;;;;;;;0.60;0.60;;;;;;;15.20;82.63;96929.59;29395;207;63004;-61
2021/07/11 00:45:37;;;;;;;0.40;0.40;;;;;;;15.21;82.31;96931.19;29395;260;63009;-56
2021/07/11 00:46:12;;;;;;;0.40;0.40;;;;;;;15.19;82.69;96938.91;29394;308;64003;-62
2021/07/11 00:46:45;;;;;;;0.43;0.43;;;;;;;15.16;83.21;96938.75;29395;221;63009;-61
2021/07/11 00:47:17;;;;;;;0.40;0.40;;;;;;;15.12;83.81;96937.78;29395;218;63004;-61
2021/07/11 00:47:48;;;;;;;0.40;0.40;;;;;;;15.08;83.69;96932.16;29395;244;63008;-62
2021/07/11 00:48:20;;;;;;;0.40;0.40;;;;;;;15.07;83.36;96936.81;29395;197;63005;-61
2021/07/11 00:48:52;;;;;;;0.40;0.40;;;;;;;15.07;83.54;96938.75;29395;305;63009;-62
2021/07/11 00:49:23;;;;;;;0.40;0.40;;;;;;;15.06;83.71;96934.41;29394;204;64009;-62
2021/07/11 00:49:55;;;;;;;0.40;0.40;;;;;;;15.09;82.74;96929.09;29395;200;63009;-62
2021/07/11 00:50:26;;;;;;;0.40;0.40;;;;;;;15.10;82.59;96938.09;29395;211;63005;-61
2021/07/11 00:50:58;;;;;;;0.40;0.40;;;;;;;15.18;82.41;96937.31;29395;282;63009;-61
2021/07/11 00:51:29;;;;;;;0.40;0.40;;;;;;;15.19;82.46;96936.19;29395;214;63005;-62
2021/07/11 00:52:05;;;;;;;0.40;0.40;;;;;;;15.18;82.69;96942.78;29395;275;63009;-60
2021/07/11 00:52:38;;;;;;;0.40;0.40;;;;;;;15.17;82.30;96934.91;29394;312;64009;-61
2021/07/11 00:53:10;;;;;;;0.40;0.40;;;;;;;15.18;82.46;96937.31;29395;284;63009;-60
2021/07/11 00:53:51;;;;;;;0.40;0.40;;;;;;;15.18;82.44;96940.03;29395;241;63004;-61
2021/07/11 00:54:22;;;;;;;0.40;0.40;;;;;;;15.20;82.04;96929.59;29417;198;63009;-57
2021/07/11 00:54:54;;;;;;;0.40;0.40;;;;;;;15.17;82.23;96930.25;29394;313;64009;-62
2021/07/11 00:55:27;;;;;;;0.40;0.40;;;;;;;15.14;82.64;96936.34;29394;210;64013;-62
2021/07/11 00:56:01;;;;;;;0.40;0.40;;;;;;;15.22;82.49;96932.00;29395;222;63005;-56
2021/07/11 00:56:33;;;;;;;0.40;0.40;;;;;;;15.20;82.33;96935.06;29395;197;63009;-60
2021/07/11 00:57:05;;;;;;;0.40;0.40;;;;;;;15.19;83.13;96932.66;29395;213;63005;-54
2021/07/11 00:57:38;;;;;;;0.40;0.40;;;;;;;15.16;82.71;96934.09;29395;238;63009;-61
2021/07/11 00:58:09;;;;;;;0.40;0.40;;;;;;;15.15;82.85;96932.47;29395;203;63005;-57
2021/07/11 00:58:40;;;;;;;0.40;0.40;;;;;;;15.13;82.78;96929.25;29395;228;63009;-61
2021/07/11 00:59:13;;;;;;;0.40;0.40;;;;;;;15.13;82.56;96931.19;29395;235;63005;-61
2021/07/11 00:59:44;;;;;;;0.40;0.40;;;;;;;15.13;83.35;96933.94;29395;221;63009;-61
2021/07/11 01:00:16;;;;;;;0.40;0.40;;;;;;;15.09;83.43;96934.56;29395;212;63009;-61
2021/07/11 01:00:51;;;;;;;0.40;0.40;;;;;;;15.07;82.99;96931.34;29394;223;64013;-62
2021/07/11 01:01:53;;;;;;;0.40;0.40;;;;;;;15.05;83.04;96935.53;29395;235;63004;-56
2021/07/11 01:02:35;;;;;;;0.40;0.40;;;;;;;15.04;83.57;96931.19;29417;202;63009;-61
2021/07/11 01:03:31;;;;;;;0.40;0.40;;;;;;;15.04;83.51;96936.66;29395;246;63004;-62
2021/07/11 01:04:10;;;;;;;0.40;0.40;;;;;;;15.05;83.17;96935.53;29395;265;63009;-57
2021/07/11 01:05:00;;;;;;;0.40;0.40;;;;;;;15.07;82.79;96933.28;29395;224;63017;-58
2021/07/11 01:05:32;;;;;;;0.40;0.40;;;;;;;15.07;82.44;96931.34;29394;211;64013;-58
2021/07/11 01:06:05;;;;;;;0.40;0.40;;;;;;;15.06;82.97;96934.41;29395;256;63005;-61
2021/07/11 01:06:40;;;;;;;0.40;0.40;;;;;;;15.02;83.25;96936.16;29395;339;63009;-62
2021/07/11 01:07:13;;;;;;;0.40;0.40;;;;;;;15.09;82.59;96933.75;29395;210;63005;-60
2021/07/11 01:08:32;;;;;;;0.40;0.40;;;;;;;15.15;81.57;96937.94;29395;222;63009;-60
2021/07/11 01:09:13;;;;;;;0.40;0.40;;;;;;;15.15;81.60;96937.16;29394;235;64009;-60
2021/07/11 01:09:49;;;;;;;0.40;0.40;;;;;;;15.15;82.00;96937.94;29395;262;63009;-61
2021/07/11 01:10:33;;;;;;;0.40;0.40;;;;;;;15.21;81.59;96936.66;29395;210;63004;-58
2021/07/11 01:11:07;;;;;;;0.40;0.40;;;;;;;15.21;81.47;96936.66;29395;200;63009;-62
2021/07/11 01:11:50;;;;;;;0.40;0.40;;;;;;;15.20;81.36;96943.25;29395;200;63005;-61
2021/07/11 01:12:25;;;;;;;0.40;0.40;;;;;;;15.16;81.91;96944.22;29395;238;63009;-60
2021/07/11 01:12:58;;;;;;;0.40;0.40;;;;;;;15.10;81.55;96935.38;29395;287;63005;-61
2021/07/11 01:13:31;;;;;;;0.40;0.40;;;;;;;15.08;81.64;96937.63;29395;198;63009;-58
2021/07/11 01:14:03;;;;;;;0.40;0.40;;;;;;;15.11;82.09;96941.62;29394;264;64009;-62
2021/07/11 01:14:35;;;;;;;0.50;0.50;;;;;;;15.17;81.01;96938.44;29395;208;63009;-61
2021/07/11 01:15:08;;;;;;;0.40;0.40;;;;;;;15.16;81.48;96938.75;29395;213;63004;-58
2021/07/11 01:15:45;;;;;;;0.40;0.40;;;;;;;15.12;81.15;96935.84;29394;212;64013;-62
2021/07/11 01:16:24;;;;;;;0.50;0.50;;;;;;;15.11;81.32;96938.91;29395;253;63004;-61
2021/07/11 01:16:58;;;;;;;0.40;0.40;;;;;;;15.06;81.56;96934.41;29395;254;63026;-59
2021/07/11 01:17:30;;;;;;;0.40;0.40;;;;;;;15.01;82.02;96943.56;29395;213;63004;-61
2021/07/11 01:18:04;;;;;;;0.50;0.50;;;;;;;15.01;82.33;96940.03;29395;218;63008;-62
2021/07/11 01:18:42;;;;;;;0.40;0.40;;;;;;;14.99;82.88;96939.53;29395;210;63005;-61
2021/07/11 01:19:50;;;;;;;0.40;0.40;;;;;;;15.00;82.65;96941.12;29395;215;63009;-63
2021/07/11 01:20:47;;;;;;;0.43;0.43;;;;;;;14.94;82.84;96936.94;29395;220;63010;-56
2021/07/11 01:21:23;;;;;;;0.40;0.40;;;;;;;14.92;83.20;96947.38;29394;207;64013;-56
2021/07/11 01:21:59;;;;;;;0.40;0.40;;;;;;;14.93;83.32;96940.81;29395;254;63005;-62
2021/07/11 01:22:39;;;;;;;0.40;0.40;;;;;;;14.99;83.08;96939.53;29395;303;63009;-58
2021/07/11 01:23:22;;;;;;;0.40;0.40;;;;;;;15.02;82.97;96947.09;29395;302;63004;-61
2021/07/11 01:24:10;;;;;;;0.50;0.50;;;;;;;15.05;82.67;96954.66;29395;232;63009;-57
2021/07/11 01:24:51;;;;;;;0.40;0.40;;;;;;;15.07;82.17;96947.75;29395;201;63004;-58
2021/07/11 01:25:42;;;;;;;0.40;0.40;;;;;;;15.06;81.72;96945.34;29417;215;63008;-61
2021/07/11 01:26:15;;;;;;;0.40;0.40;;;;;;;15.08;81.75;96937.63;29417;221;63014;-61
2021/07/11 01:26:47;;;;;;;0.40;0.40;;;;;;;15.07;81.67;96942.28;29394;223;64014;-61
2021/07/11 01:27:20;;;;;;;0.40;0.40;;;;;;;15.05;82.05;96941.78;29395;210;63005;-61
2021/07/11 01:27:52;;;;;;;0.40;0.40;;;;;;;15.04;82.67;96947.56;29395;198;63009;-56
2021/07/11 01:28:24;;;;;;;0.40;0.40;;;;;;;15.03;82.81;96945.97;29395;207;63005;-61
2021/07/11 01:28:57;;;;;;;0.40;0.40;;;;;;;15.01;82.92;96942.75;29395;202;63009;-62
2021/07/11 01:29:32;;;;;;;0.43;0.43;;;;;;;15.02;82.66;96938.91;29395;264;63005;-62
2021/07/11 01:30:06;;;;;;;0.40;0.40;;;;;;;15.03;82.68;96937.78;29394;198;64013;-61
2021/07/11 01:30:39;;;;;;;0.40;0.40;;;;;;;15.06;81.91;96934.41;29395;271;63004;-61
2021/07/11 01:31:15;;;;;;;0.40;0.40;;;;;;;15.07;82.18;96938.75;29395;207;63009;-61
2021/07/11 01:31:48;;;;;;;0.40;0.40;;;;;;;15.05;82.33;96943.72;29394;260;64009;-61
2021/07/11 01:32:20;;;;;;;0.40;0.40;;;;;;;15.01;82.97;96934.56;29395;278;63009;-61
2021/07/11 01:32:55;;;;;;;0.40;0.40;;;;;;;14.99;83.40;96940.34;29395;198;63004;-60
2021/07/11 01:33:30;;;;;;;0.40;0.40;;;;;;;14.99;83.53;96945.00;29395;232;63008;-61
2021/07/11 01:34:02;;;;;;;0.40;0.40;;;;;;;14.98;83.46;96940.66;29395;271;63005;-61
2021/07/11 01:34:33;;;;;;;0.40;0.40;;;;;;;14.96;83.84;96940.97;29395;226;63028;-62
2021/07/11 01:35:07;;;;;;;0.40;0.40;;;;;;;15.05;82.49;96939.06;29395;213;63009;-60
2021/07/11 01:35:41;;;;;;;0.40;0.40;;;;;;;15.08;81.95;96943.88;29395;233;63009;-61
2021/07/11 01:36:13;;;;;;;0.40;0.40;;;;;;;15.10;82.14;96946.31;29395;218;63005;-57
2021/07/11 01:36:45;;;;;;;0.40;0.40;;;;;;;15.10;82.25;96938.09;29395;260;63025;-56
2021/07/11 01:37:18;;;;;;;0.40;0.40;;;;;;;15.09;82.37;96942.75;29394;200;64009;-61
2021/07/11 01:37:52;;;;;;;0.40;0.40;;;;;;;15.08;82.35;96941.16;29395;228;63013;-57
2021/07/11 01:38:24;;;;;;;0.40;0.40;;;;;;;15.07;82.49;96942.28;29395;220;63004;-62
2021/07/11 01:38:56;;;;;;;0.40;0.40;;;;;;;15.06;83.49;96940.66;29395;257;63009;-61
2021/07/11 01:39:28;;;;;;;0.40;0.40;;;;;;;15.06;83.72;96939.88;29395;204;63004;-60
2021/07/11 01:40:01;;;;;;;0.40;0.40;;;;;;;15.04;82.99;96931.19;29395;262;63008;-61
2021/07/11 01:40:33;;;;;;;0.50;0.50;;;;;;;15.03;83.08;96935.84;29395;240;63016;-61
2021/07/11 01:41:08;;;;;;;0.50;0.50;;;;;;;15.00;83.50;96936.47;29395;254;63009;-57
2021/07/11 01:41:40;;;;;;;0.40;0.40;;;;;;;14.98;83.60;96935.19;29395;327;63005;-61
2021/07/11 01:42:13;;;;;;;0.40;0.40;;;;;;;14.98;83.71;96937.91;29394;302;64013;-62
2021/07/11 01:42:46;;;;;;;0.40;0.40;;;;;;;14.99;83.42;96931.34;29395;269;63005;-57
2021/07/11 01:43:20;;;;;;;0.40;0.40;;;;;;;15.01;82.71;96929.87;29395;274;63009;-56
2021/07/11 01:43:56;;;;;;;0.40;0.40;;;;;;;15.07;82.84;96930.53;29395;202;63005;-56
2021/07/11 01:44:28;;;;;;;0.50;0.50;;;;;;;15.17;81.72;96932.16;29395;227;63023;-61
2021/07/11 01:45:01;;;;;;;0.50;0.50;;;;;;;15.16;81.92;96934.09;29395;204;63004;-57
2021/07/11 01:45:32;;;;;;;0.47;0.47;;;;;;;15.13;82.14;96934.72;29394;202;64013;-55
2021/07/11 01:46:07;;;;;;;0.40;0.40;;;;;;;15.10;82.21;96940.84;29395;216;63004;-61
2021/07/11 01:46:40;;;;;;;0.40;0.40;;;;;;;15.14;82.01;96939.06;29394;202;64013;-63
2021/07/11 01:47:12;;;;;;;0.40;0.40;;;;;;;15.13;82.15;96934.72;29395;205;63004;-61
2021/07/11 01:47:44;;;;;;;0.45;0.45;;;;;;;15.15;81.58;96935.22;29395;207;63008;-62
2021/07/11 01:48:16;;;;;;;0.40;0.40;;;;;;;15.13;81.60;96940.19;29395;241;63005;-61
2021/07/11 01:48:48;;;;;;;0.40;0.40;;;;;;;15.12;82.21;96935.06;29395;199;63009;-62
2021/07/11 01:49:20;;;;;;;0.40;0.40;;;;;;;15.09;82.20;96933.75;29395;225;63008;-61
2021/07/11 01:49:52;;;;;;;0.40;0.40;;;;;;;15.08;81.98;96934.88;29395;207;63013;-62
2021/07/11 01:50:25;;;;;;;0.47;0.47;;;;;;;15.08;82.14;96934.88;29395;356;63005;-62
2021/07/11 01:50:57;;;;;;;0.40;0.40;;;;;;;15.08;82.64;96940.34;29394;199;64013;-62
2021/07/11 01:51:29;;;;;;;0.40;0.40;;;;;;;15.08;82.51;96943.09;29395;218;63005;-62
2021/07/11 01:52:02;;;;;;;0.40;0.40;;;;;;;15.06;83.58;96937.94;29394;235;64029;-62
2021/07/11 01:52:34;;;;;;;0.40;0.40;;;;;;;15.04;83.62;96939.38;29395;272;63004;-62
2021/07/11 01:53:06;;;;;;;0.40;0.40;;;;;;;15.03;83.43;96932.31;29395;218;63009;-62
2021/07/11 01:53:41;;;;;;;0.40;0.40;;;;;;;15.04;83.18;96939.38;29395;219;63004;-57
2021/07/11 01:54:15;;;;;;;0.40;0.40;;;;;;;15.03;82.64;96935.03;29395;242;63009;-61
2021/07/11 01:54:46;;;;;;;0.40;0.40;;;;;;;15.04;82.57;96934.72;29395;220;63004;-56
2021/07/11 01:55:25;;;;;;;0.40;0.40;;;;;;;15.04;82.71;96940.19;29394;209;64013;-62
2021/07/11 01:55:58;;;;;;;0.40;0.40;;;;;;;15.06;82.30;96939.88;29395;208;63005;-62
2021/07/11 01:56:30;;;;;;;0.40;0.40;;;;;;;15.13;82.19;96939.41;29395;204;63009;-63
2021/07/11 01:57:01;;;;;;;0.40;0.40;;;;;;;15.13;82.45;96940.19;29395;202;63005;-56
2021/07/11 01:57:33;;;;;;;0.40;0.40;;;;;;;15.11;81.97;96945.19;29394;229;64013;-62
2021/07/11 01:58:07;;;;;;;0.40;0.40;;;;;;;15.08;82.36;96943.09;29395;215;63005;-62
2021/07/11 01:58:40;;;;;;;0.40;0.40;;;;;;;15.06;82.13;96943.41;29395;197;63016;-62
2021/07/11 01:59:12;;;;;;;0.40;0.40;;;;;;;15.04;82.58;96934.72;29394;265;64009;-61
2021/07/11 01:59:44;;;;;;;0.40;0.40;;;;;;;15.03;82.55;96948.69;29395;232;63009;-61
2021/07/11 02:00:17;;;;;;;0.40;0.40;;;;;;;15.02;83.49;96945.16;29395;225;63004;-63
2021/07/11 02:00:51;;;;;;;0.40;0.40;;;;;;;14.99;83.81;96945.81;29395;202;63009;-56
2021/07/11 02:01:23;;;;;;;0.40;0.40;;;;;;;14.97;83.96;96944.50;29395;198;63004;-61
2021/07/11 02:01:54;;;;;;;0.40;0.40;;;;;;;14.95;83.33;96947.56;29395;226;63009;-62
2021/07/11 02:02:25;;;;;;;0.40;0.40;;;;;;;14.94;83.13;96945.94;29395;322;63009;-62
2021/07/11 02:02:56;;;;;;;0.40;0.40;;;;;;;14.96;82.70;96953.84;29395;225;63009;-61
2021/07/11 02:03:29;;;;;;;0.40;0.40;;;;;;;14.98;82.47;96948.84;29394;198;64009;-56
2021/07/11 02:04:00;;;;;;;0.40;0.40;;;;;;;15.01;82.24;96948.22;29395;226;63009;-62
2021/07/11 02:04:34;;;;;;;0.40;0.40;;;;;;;15.02;82.20;96945.16;29395;238;63005;-56
2021/07/11 02:05:09;;;;;;;0.40;0.40;;;;;;;15.04;82.06;96947.56;29395;197;63009;-57
2021/07/11 02:05:43;;;;;;;0.40;0.40;;;;;;;15.05;82.12;96943.72;29395;238;63005;-62
2021/07/11 02:06:15;;;;;;;0.40;0.40;;;;;;;15.05;82.11;96943.72;29395;202;63009;-58
2021/07/11 02:06:46;;;;;;;0.40;0.40;;;;;;;15.04;82.48;96947.56;29395;235;63004;-56
2021/07/11 02:07:17;;;;;;;0.40;0.40;;;;;;;15.01;82.24;96942.75;29395;219;63009;-61
2021/07/11 02:07:50;;;;;;;0.45;0.45;;;;;;;15.02;81.96;96952.56;29394;231;64009;-57
2021/07/11 02:08:23;;;;;;;0.40;0.40;;;;;;;15.00;81.94;96952.06;29395;212;63009;-57
2021/07/11 02:08:55;;;;;;;0.40;0.40;;;;;;;15.00;82.25;96949.34;29395;236;63014;-57
2021/07/11 02:09:26;;;;;;;0.40;0.40;;;;;;;14.97;82.31;96948.03;29395;201;63008;-62
2021/07/11 02:09:58;;;;;;;0.40;0.40;;;;;;;14.98;82.30;96948.84;29395;235;63004;-58
2021/07/11 02:10:30;;;;;;;0.40;0.40;;;;;;;14.98;82.47;96954.31;29395;199;63009;-57
2021/07/11 02:11:02;;;;;;;0.40;0.40;;;;;;;14.96;82.40;96951.09;29394;263;64009;-62
2021/07/11 02:11:37;;;;;;;0.40;0.40;;;;;;;14.96;82.67;96951.09;29394;197;64013;-62
2021/07/11 02:12:10;;;;;;;0.40;0.40;;;;;;;14.93;83.29;96951.72;29395;290;63005;-62
2021/07/11 02:12:55;;;;;;;0.40;0.40;;;;;;;14.92;82.74;96950.13;29395;219;63009;-56
2021/07/11 02:13:33;;;;;;;0.40;0.40;;;;;;;14.92;82.34;96942.72;29395;246;63005;-56
2021/07/11 02:14:19;;;;;;;0.40;0.40;;;;;;;14.93;82.15;96946.25;29395;266;63009;-63
2021/07/11 02:14:53;;;;;;;0.40;0.40;;;;;;;14.91;82.33;96943.06;29395;270;63004;-57
2021/07/11 02:15:29;;;;;;;0.40;0.40;;;;;;;14.92;82.33;96950.94;29395;316;63009;-57
2021/07/11 02:16:09;;;;;;;0.40;0.40;;;;;;;14.92;82.63;96956.38;29395;238;63004;-56
2021/07/11 02:16:54;;;;;;;0.40;0.40;;;;;;;14.92;82.52;96944.66;29394;196;64013;-56
2021/07/11 02:17:28;;;;;;;0.40;0.40;;;;;;;14.91;82.75;96951.25;29395;231;63005;-57
2021/07/11 02:18:02;;;;;;;0.40;0.40;;;;;;;14.91;82.76;96943.06;29395;202;63009;-56
2021/07/11 02:18:39;;;;;;;0.40;0.40;;;;;;;14.91;82.92;96940.31;29395;218;63005;-55
2021/07/11 02:19:15;;;;;;;0.40;0.40;;;;;;;14.90;83.12;96941.47;29395;229;63009;-62
2021/07/11 02:19:47;;;;;;;0.45;0.45;;;;;;;14.91;83.24;96943.06;29394;198;64009;-57
2021/07/11 02:20:23;;;;;;;0.40;0.40;;;;;;;14.91;83.24;96943.06;29395;196;63014;-62
2021/07/11 02:20:59;;;;;;;0.40;0.40;;;;;;;14.91;83.41;96937.59;29394;254;64009;-62
2021/07/11 02:21:31;;;;;;;0.40;0.40;;;;;;;14.91;83.08;96938.38;29395;202;63009;-56
2021/07/11 02:22:04;;;;;;;0.40;0.40;;;;;;;14.93;83.76;96940.81;29395;227;63004;-56
2021/07/11 02:22:44;;;;;;;0.40;0.40;;;;;;;14.92;83.41;96939.19;29395;226;63015;-55
2021/07/11 02:23:18;;;;;;;0.40;0.40;;;;;;;14.93;83.71;96935.34;29395;197;63004;-56
2021/07/11 02:23:52;;;;;;;0.40;0.40;;;;;;;14.94;83.66;96947.88;29395;214;63009;-62
2021/07/11 02:24:24;;;;;;;0.40;0.40;;;;;;;14.95;83.74;96939.38;29395;206;63004;-56
2021/07/11 02:24:57;;;;;;;0.40;0.40;;;;;;;14.95;83.22;96939.38;29394;262;64014;-62
2021/07/11 02:25:29;;;;;;;0.40;0.40;;;;;;;14.96;83.09;96940.16;29395;202;63005;-61
2021/07/11 02:26:01;;;;;;;0.40;0.40;;;;;;;14.96;83.17;96940.16;29395;224;63017;-62
2021/07/11 02:26:37;;;;;;;0.40;0.40;;;;;;;14.95;83.08;96933.09;29395;206;63005;-56
2021/07/11 02:27:09;;;;;;;0.40;0.40;;;;;;;14.94;83.05;96931.47;29395;252;63009;-62
2021/07/11 02:27:47;;;;;;;0.40;0.40;;;;;;;14.94;82.93;96936.94;29395;273;63005;-61
2021/07/11 02:28:20;;;;;;;0.40;0.40;;;;;;;14.95;83.41;96933.09;29395;267;63009;-56
2021/07/11 02:28:52;;;;;;;0.40;0.40;;;;;;;14.95;83.30;96933.91;29395;214;63005;-63
2021/07/11 02:29:27;;;;;;;0.40;0.40;;;;;;;14.96;83.00;96934.69;29394;205;64013;-62
2021/07/11 02:30:06;;;;;;;0.40;0.40;;;;;;;14.96;82.86;96937.44;29394;258;64009;-62
2021/07/11 02:30:51;;;;;;;0.40;0.40;;;;;;;14.94;83.08;96937.75;29395;245;63009;-57
2021/07/11 02:31:27;;;;;;;0.40;0.40;;;;;;;14.93;83.49;96936.16;29394;226;64009;-61
2021/07/11 02:32:02;;;;;;;0.40;0.40;;;;;;;14.95;83.13;96933.09;29395;234;63008;-56
2021/07/11 02:32:34;;;;;;;0.40;0.40;;;;;;;14.96;83.36;96934.69;29395;248;63013;-61
2021/07/11 02:33:11;;;;;;;0.40;0.40;;;;;;;14.97;82.57;96937.13;29395;199;63009;-62
2021/07/11 02:33:44;;;;;;;0.30;0.30;;;;;;;15.00;82.71;96930.22;29395;207;63005;-63
2021/07/11 02:34:16;;;;;;;0.40;0.40;;;;;;;15.03;81.60;96937.78;29395;206;63018;-62
2021/07/11 02:34:48;;;;;;;0.40;0.40;;;;;;;15.03;81.82;96935.03;29395;222;63005;-59
2021/07/11 02:35:30;;;;;;;0.40;0.40;;;;;;;15.03;81.58;96937.78;29395;202;63009;-62
2021/07/11 02:36:03;;;;;;;0.32;0.32;;;;;;;15.04;81.29;96940.19;29395;220;64009;-62
2021/07/11 02:36:39;;;;;;;0.40;0.40;;;;;;;15.04;81.15;96942.13;29396;283;63024;-62
2021/07/11 02:37:15;;;;;;;0.40;0.40;;;;;;;15.00;81.90;96938.41;29396;202;63011;-62
2021/07/11 02:37:49;;;;;;;0.40;0.40;;;;;;;14.96;82.32;96940.16;29395;215;64013;-62
2021/07/11 02:38:21;;;;;;;0.40;0.40;;;;;;;14.93;82.63;96940.81;29396;243;63004;-58
2021/07/11 02:39:11;;;;;;;0.40;0.40;;;;;;;14.91;82.09;96937.59;29396;220;63009;-62
2021/07/11 02:39:47;;;;;;;0.40;0.40;;;;;;;14.91;82.29;96943.06;29396;205;63004;-62
2021/07/11 02:40:20;;;;;;;0.40;0.40;;;;;;;14.90;82.30;96941.47;29396;241;63015;-62
2021/07/11 02:40:52;;;;;;;0.40;0.40;;;;;;;14.92;82.54;96934.53;29396;203;63005;-62
2021/07/11 02:41:27;;;;;;;0.40;0.40;;;;;;;14.93;82.50;96946.25;29395;298;64014;-62
2021/07/11 02:42:05;;;;;;;0.40;0.40;;;;;;;14.95;82.21;96946.75;29396;204;63005;-62
2021/07/11 02:42:37;;;;;;;0.40;0.40;;;;;;;14.93;82.29;96940.81;29396;239;63009;-59